Informes de METARS cercanos

 

LEAL - Alicante/El Alte, Spain
Distance from station: SSE 60km
Actualización: 19/01/2021 21:30
Despejado
Despejado
 Viento del ONO
Viento: ONO 7 km/h
Temperatura: 8°C
Wind Chill: 7°C
Rocío: 7°C
Humedad: 93%
Barómetro: 1022 hPa
Resumen: Despejado
Visibility: greater than 10 km
2021/01/19 20:30 LEAL 192030Z 29004KT CAVOK 08/07 Q1022 NOSIG
LEVC - Valencia (civ/Mi, Spain
Distance from station: NNE 84km
Actualización: 19/01/2021 21:30
Parcialmente nuboso
Parcialmente nuboso
 Viento del O
Viento: O 6 km/h
Temperatura: 6°C
Rocío: 5°C
Humedad: 93%
Barómetro: 1021 hPa
Clouds: Parcialmente nuboso
Visibility: 8 km
2021/01/19 20:30 LEVC 192030Z 28003KT 8000 NSC 06/05 Q1021 NOSIG
 
LEAB - Albacete (civ/Mi, Spain
Distance from station: O 95km
Actualización: 19/01/2021 21:30
Despejado
Despejado
 Viento del varies
Viento: varies 4 km/h
Temperatura: -1°C
Rocío: -2°C
Humedad: 93%
Barómetro: 1022 hPa
Resumen: Despejado
Visibility: greater than 10 km
2021/01/19 20:30 LEAB 192030Z VRB02KT CAVOK M01/M02 Q1022 NOSIG
LERI - Alcantarilla(Sp-, Spain
Distance from station: SSO 100km
Actualización: 19/01/2021 19:00
NOT Current
Despejado
Despejado
 Viento del O
Viento: O 9 km/h
Temperatura: 11°C
Rocío: 7°C
Humedad: 77%
Barómetro: 1022 hPa
Resumen: Despejado
Visibility: greater than 10 km
2021/01/19 18:00 LERI 191800Z 27005KT CAVOK 11/07 Q1022 NOSIG
 
LELC - San Javier(Mil/C, Spain
Distance from station: S 113km
Actualización: 19/01/2021 21:30
Few Clouds
Few Clouds
 Viento del ONO
Viento: ONO 4 km/h
Temperatura: 7°C
Rocío: 7°C
Humedad: 100%
Barómetro: 1022 hPa
Clouds: Few Clouds
Visibility: 10 km
Cloud details: Few Clouds 488 m
2021/01/19 20:30 LELC 192030Z 29002KT 9999 FEW016 07/07 Q1022 NOSIG
LEIB - Ibiza/Es Codola, Spain
Distance from station: E 186km
Actualización: 19/01/2021 21:30
Muy nuboso
Muy nuboso
 Viento del SSO
Viento: SSO 13 km/h
Temperatura: 13°C
Rocío: 10°C
Humedad: 82%
Barómetro: 1022 hPa
Clouds: Muy nuboso
Visibility: 10 km
Cloud details: Muy nuboso 396 m
2021/01/19 20:30 LEIB 192030Z 20007KT 170V230 9999 BKN013 13/10 Q1022 NOSIG
 
LEAM - Almeria Airport, Spain
Distance from station: SSO 256km
Actualización: 19/01/2021 21:30
Muy nuboso
Muy nuboso
 Viento del O
Viento: O 11 km/h
Temperatura: 13°C
Rocío: 10°C
Humedad: 82%
Barómetro: 1022 hPa
Clouds: Muy nuboso
Visibility: 10 km
Cloud details: Muy nuboso 518 m
2021/01/19 20:30 LEAM 192030Z 27006KT 9999 BKN017 13/10 Q1022
LEMD - Madrid/Barajas, Spain
Distance from station: NO 305km
Actualización: 19/01/2021 21:30
Parcialmente nuboso
Parcialmente nuboso
 Viento del NNO
Viento: NNO 6 km/h
Temperatura: 0°C
Rocío: -1°C
Humedad: 93%
Barómetro: 1020 hPa
Clouds: Parcialmente nuboso
Visibility: 6 km
2021/01/19 20:30 LEMD 192030Z 33003KT 6000 NSC 00/M01 Q1020 NOSIG
 
LEPA - Palma De Mallorc, Spain
Distance from station: ENE 313km
Actualización: 19/01/2021 21:30
Parcialmente nuboso
Parcialmente nuboso
 Viento del ENE
Viento: ENE 9 km/h
Temperatura: 9°C
Wind Chill: 7°C
Rocío: 7°C
Humedad: 87%
Barómetro: 1023 hPa
Clouds: Parcialmente nuboso
Visibility: 10 km
Cloud details: Few Clouds 549 m
Parcialmente nuboso 671 m
2021/01/19 20:30 LEPA 192030Z 06005KT 9999 FEW018 SCT022 09/07 Q1023 NOSIG